Terminal Aerodrome Forecast
Issued by NWS

Home | Current Version | Previous Version | Text Only | Print | Product List | Glossary On
Versions: 1 2 3 4 5 6 7 8 9 10 11 12 13
000
FTUS44 KLZK 302300
TAFBPK
TAF
KBPK 302331Z 3100/3124 VRB05KT P6SM -RA BKN010 OVC035
      TEMPO 3101/3104 3SM RA BR BKN005 OVC010
     FM310400 VRB04KT 5SM -RA BR SCT020 OVC035
      TEMPO 3106/3110 2SM RA BR OVC015
     FM311000 VRB03KT 3SM -RA BR OVC025
      TEMPO 3110/3114 2SM -RA BR BKN005 OVC015
     FM311500 15005KT P6SM -RA SCT015 OVC040 PROB30 3115/3118 4SM
      -RA BR OVC025=

USA.gov is the U.S. government's official web portal to all federal, state and local government web resources and services.